Time;durP1;ratioP1;P1;durP2;ratioP2;P2;SDS_P1;SDS_P2;PMS_P1;PMS_P2;Temp;Humidity;BMP_temperature;BMP_pressure;BME280_temperature;BME280_humidity;BME280_pressure;Samples;Min_cycle;Max_cycle;Signal;HPM_P1;HPM_P2
2023/10/11 00:02:55;;;;;;;4.03;1.02;;;16.10;1.00;;;;;;5049710;28;20116;-78
2023/10/11 00:05:39;;;;;;;1.30;1.20;;;16.20;1.00;;;;;;5053922;28;20037;-78
2023/10/11 00:08:08;;;;;;;7.53;1.90;;;16.10;1.00;;;;;;5052003;28;20060;-77
2023/10/11 00:10:42;;;;;;;3.75;1.92;;;16.10;1.00;;;;;;5054715;28;20506;-78
2023/10/11 00:13:11;;;;;;;2.05;1.02;;;16.10;1.40;;;;;;5052849;28;20128;-78
2023/10/11 00:15:38;;;;;;;1.98;1.17;;;16.10;48.20;;;;;;5054392;28;20124;-78
2023/10/11 00:18:03;;;;;;;0.75;0.75;;;16.20;62.10;;;;;;5052880;28;20045;-77
2023/10/11 00:20:34;;;;;;;2.63;1.63;;;16.00;99.90;;;;;;5053973;28;20064;-77
2023/10/11 00:23:00;;;;;;;1.35;1.25;;;16.10;99.90;;;;;;5053405;28;20129;-80
2023/10/11 00:25:26;;;;;;;3.60;2.53;;;16.10;99.90;;;;;;5053920;28;20084;-78
2023/10/11 00:27:52;;;;;;;1.15;0.90;;;16.00;99.90;;;;;;5054586;28;20104;-78
2023/10/11 00:30:19;;;;;;;4.57;1.08;;;16.00;99.90;;;;;;5054896;28;20045;-77
2023/10/11 00:32:47;;;;;;;0.60;0.52;;;16.10;99.90;;;;;;5054033;28;20125;-78
2023/10/11 00:35:19;;;;;;;1.45;1.25;;;16.00;99.90;;;;;;5054905;28;20037;-77
2023/10/11 00:37:47;;;;;;;0.60;0.60;;;16.00;99.90;;;;;;5046490;28;20056;-78
2023/10/11 00:40:14;;;;;;;1.63;1.52;;;15.90;1.00;;;;;;5054343;28;20033;-77
2023/10/11 00:42:41;;;;;;;1.88;1.17;;;15.90;25.70;;;;;;5053852;28;20417;-77
2023/10/11 00:45:08;;;;;;;4.50;1.52;;;15.90;87.80;;;;;;5055202;28;20087;-77
2023/10/11 00:47:40;;;;;;;1.60;1.45;;;15.80;99.90;;;;;;5053062;28;20501;-78
2023/10/11 00:50:14;;;;;;;2.03;1.55;;;15.90;99.90;;;;;;5053884;28;20041;-77
2023/10/11 00:52:45;;;;;;;4.82;1.52;;;15.90;99.90;;;;;;5054334;28;20081;-78
2023/10/11 00:55:23;;;;;;;1.35;1.17;;;15.90;99.90;;;;;;5054755;28;20140;-77
2023/10/11 00:57:49;;;;;;;1.40;0.85;;;16.10;99.90;;;;;;5055418;28;20045;-78
2023/10/11 01:00:20;;;;;;;3.28;2.53;;;15.90;99.90;;;;;;5052558;28;20043;-77
2023/10/11 01:02:46;;;;;;;1.83;1.25;;;15.90;99.90;;;;;;5052810;28;20052;-77
2023/10/11 01:05:17;;;;;;;1.33;1.23;;;16.00;99.90;;;;;;5057624;28;20347;-78
2023/10/11 01:07:44;;;;;;;4.05;2.05;;;16.00;99.90;;;;;;5055324;28;20119;-77
2023/10/11 01:10:10;;;;;;;0.90;0.85;;;15.90;99.90;;;;;;5055419;28;20053;-79
2023/10/11 01:12:36;;;;;;;4.55;1.15;;;15.90;99.90;;;;;;5056305;28;20053;-77
2023/10/11 01:15:02;;;;;;;7.18;2.67;;;15.80;1.00;;;;;;5056964;28;20056;-78
2023/10/11 01:17:38;;;;;;;0.65;0.65;;;15.80;1.00;;;;;;5056962;28;20410;-78
2023/10/11 01:20:13;;;;;;;1.48;0.95;;;15.80;1.00;;;;;;5055198;28;20041;-78
2023/10/11 01:22:45;;;;;;;0.35;0.35;;;15.80;1.00;;;;;;5056364;28;20047;-79
2023/10/11 01:25:20;;;;;;;0.45;0.40;;;15.80;90.70;;;;;;5054452;28;20040;-78
2023/10/11 01:27:47;;;;;;;0.40;0.40;;;16.00;1.00;;;;;;5054321;28;20049;-77
2023/10/11 01:30:14;;;;;;;3.05;1.58;;;15.80;35.60;;;;;;5055433;28;20447;-78
2023/10/11 01:32:42;;;;;;;2.90;1.40;;;15.80;99.90;;;;;;5056228;28;20123;-78
2023/10/11 01:35:13;;;;;;;33.15;2.72;;;15.80;74.10;;;;;;5057670;28;20482;-77
2023/10/11 01:37:42;;;;;;;10.75;2.30;;;15.80;99.90;;;;;;5052986;28;20107;-78
2023/10/11 01:40:10;;;;;;;4.93;2.40;;;15.80;96.50;;;;;;5056264;28;20498;-77
2023/10/11 01:42:37;;;;;;;3.42;1.45;;;15.80;83.60;;;;;;5057059;28;20055;-78
2023/10/11 01:45:07;;;;;;;0.75;0.75;;;15.90;99.90;;;;;;5057076;28;20079;-78
2023/10/11 01:47:34;;;;;;;7.47;1.95;;;15.80;99.90;;;;;;5057181;28;20139;-78
2023/10/11 01:49:59;;;;;;;9.93;3.53;;;15.80;99.90;;;;;;5055436;28;20501;-77
2023/10/11 01:52:26;;;;;;;0.52;0.45;;;15.90;99.90;;;;;;5053388;28;20112;-78
2023/10/11 01:54:55;;;;;;;2.08;1.65;;;15.90;99.90;;;;;;5052007;28;20053;-78
2023/10/11 01:57:25;;;;;;;1.30;1.20;;;15.80;99.90;;;;;;5056093;28;20483;-78
2023/10/11 01:59:51;;;;;;;2.20;1.25;;;15.80;99.90;;;;;;5056356;28;20033;-77
2023/10/11 02:02:17;;;;;;;17.08;3.05;;;15.80;99.90;;;;;;5056990;28;20092;-78
2023/10/11 02:04:43;;;;;;;4.72;2.97;;;15.70;99.90;;;;;;5051448;28;20065;-77
2023/10/11 02:07:09;;;;;;;1.60;1.45;;;15.80;99.90;;;;;;5053990;28;20037;-77
2023/10/11 02:09:34;;;;;;;13.60;2.92;;;15.80;99.90;;;;;;5055163;28;20556;-78
2023/10/11 02:12:00;;;;;;;1.60;0.88;;;15.70;99.90;;;;;;5055762;28;20045;-78
2023/10/11 02:14:29;;;;;;;2.83;1.55;;;15.60;99.90;;;;;;5057059;28;20041;-79
2023/10/11 02:16:54;;;;;;;1.85;1.75;;;15.60;1.00;;;;;;5057395;28;20037;-78
2023/10/11 02:19:23;;;;;;;1.30;1.05;;;15.60;1.00;;;;;;5055022;28;20037;-78
2023/10/11 02:21:48;;;;;;;1.50;0.90;;;15.60;1.00;;;;;;5057349;28;20079;-78
2023/10/11 02:24:17;;;;;;;1.75;1.08;;;15.60;1.00;;;;;;5057390;28;20041;-78
2023/10/11 02:26:49;;;;;;;1.27;0.95;;;15.50;1.00;;;;;;5057307;28;20076;-77
2023/10/11 02:29:21;;;;;;;2.20;2.00;;;15.60;52.90;;;;;;5056721;28;20044;-78
2023/10/11 02:31:54;;;;;;;5.88;2.63;;;15.60;36.60;;;;;;5057166;28;20109;-78
2023/10/11 02:34:22;;;;;;;2.10;1.75;;;15.70;1.00;;;;;;5056285;28;20413;-77
2023/10/11 02:37:02;;;;;;;2.25;0.90;;;15.60;1.00;;;;;;5057767;28;20072;-78
2023/10/11 02:39:34;;;;;;;2.50;0.70;;;15.60;20.50;;;;;;5057373;28;20391;-77
2023/10/11 02:42:00;;;;;;;5.55;2.58;;;15.60;70.90;;;;;;5057403;28;20049;-77
2023/10/11 02:44:26;;;;;;;13.80;1.90;;;15.70;32.10;;;;;;5056213;28;21059;-78
2023/10/11 02:46:52;;;;;;;4.00;1.92;;;15.70;78.00;;;;;;5057510;28;20033;-78
2023/10/11 02:49:18;;;;;;;11.15;1.65;;;15.60;22.00;;;;;;5056578;28;20040;-79
2023/10/11 02:51:59;;;;;;;2.53;2.25;;;15.60;96.70;;;;;;5055821;28;20443;-78
2023/10/11 02:54:38;;;;;;;1.08;0.57;;;15.60;51.40;;;;;;5057018;28;20402;-77
2023/10/11 02:57:18;;;;;;;11.02;2.47;;;15.60;99.90;;;;;;5055331;28;20167;-78
2023/10/11 02:59:44;;;;;;;4.07;2.40;;;15.60;99.90;;;;;;5051552;28;20048;-78
2023/10/11 03:02:15;;;;;;;12.77;5.28;;;15.60;99.90;;;;;;5052813;28;20494;-77
2023/10/11 03:04:41;;;;;;;3.10;2.17;;;15.60;99.90;;;;;;5054305;28;20059;-78
2023/10/11 03:07:23;;;;;;;0.57;0.52;;;15.60;99.90;;;;;;5053528;28;20764;-77
2023/10/11 03:09:49;;;;;;;2.55;1.83;;;15.60;99.90;;;;;;5055266;28;20143;-77
2023/10/11 03:12:18;;;;;;;2.75;1.27;;;15.50;99.90;;;;;;5056535;28;20033;-79
2023/10/11 03:14:54;;;;;;;2.15;1.88;;;15.40;99.90;;;;;;5056536;28;20044;-78
2023/10/11 03:17:20;;;;;;;1.88;1.20;;;15.40;99.90;;;;;;5046757;28;20041;-78
2023/10/11 03:19:49;;;;;;;2.72;2.28;;;15.50;99.90;;;;;;5055684;28;20040;-78
2023/10/11 03:22:21;;;;;;;3.08;0.98;;;15.40;99.90;;;;;;5051509;28;20056;-77
2023/10/11 03:24:53;;;;;;;2.70;2.28;;;15.40;99.90;;;;;;5053095;28;20112;-77
2023/10/11 03:27:23;;;;;;;3.92;2.08;;;15.40;99.90;;;;;;5056192;28;20095;-78
2023/10/11 03:29:52;;;;;;;0.75;0.75;;;15.40;99.90;;;;;;5054709;28;20045;-78
2023/10/11 03:32:18;;;;;;;1.85;1.48;;;15.40;99.90;;;;;;5054670;28;20041;-77
2023/10/11 03:34:43;;;;;;;1.85;1.65;;;15.40;99.90;;;;;;5055155;28;20040;-77
2023/10/11 03:37:18;;;;;;;0.95;0.90;;;15.40;99.90;;;;;;5055398;28;20037;-80
2023/10/11 03:39:54;;;;;;;1.02;0.98;;;15.50;99.90;;;;;;5055842;28;20041;-77
2023/10/11 03:42:20;;;;;;;10.32;2.38;;;15.50;99.90;;;;;;5055115;28;20433;-77
2023/10/11 03:44:46;;;;;;;4.53;1.17;;;15.60;99.90;;;;;;5042276;28;20127;-77
2023/10/11 03:47:24;;;;;;;7.80;2.10;;;15.60;99.90;;;;;;5036513;28;20444;-78
2023/10/11 03:49:53;;;;;;;0.88;0.88;;;15.70;99.90;;;;;;5052567;28;20080;-78
2023/10/11 03:52:30;;;;;;;1.20;0.93;;;16.20;92.60;;;;;;5052423;28;20143;-78
2023/10/11 03:55:12;;;;;;;0.65;0.65;;;15.80;25.70;;;;;;5050368;28;20052;-77
2023/10/11 03:57:42;;;;;;;2.10;0.77;;;15.70;1.00;;;;;;5055298;28;20171;-78
2023/10/11 04:00:28;;;;;;;2.45;1.33;;;15.80;1.00;;;;;;5046665;28;20045;-78
2023/10/11 04:02:58;;;;;;;;;;;15.80;1.00;;;;;;5054926;28;20037;-77
2023/10/11 04:05:29;;;;;;;3.67;1.10;;;15.90;99.90;;;;;;5053791;28;19920;-77
2023/10/11 04:07:55;;;;;;;2.67;1.35;;;15.80;99.90;;;;;;5052909;28;20052;-77
2023/10/11 04:10:38;;;;;;;0.80;0.73;;;15.90;99.90;;;;;;5053981;28;20041;-79
2023/10/11 04:13:08;;;;;;;4.53;2.60;;;16.30;99.90;;;;;;5054685;28;20049;-78
2023/10/11 04:15:34;;;;;;;1.42;1.33;;;16.00;99.90;;;;;;5054043;28;20041;-77
2023/10/11 04:18:05;;;;;;;1.83;1.30;;;15.90;99.90;;;;;;5054638;28;20371;-77
2023/10/11 04:20:32;;;;;;;0.90;0.80;;;15.80;99.90;;;;;;5053022;28;20041;-77
2023/10/11 04:23:09;;;;;;;3.40;1.88;;;15.80;99.90;;;;;;5052366;28;20088;-77
2023/10/11 04:25:38;;;;;;;2.45;1.48;;;16.10;99.90;;;;;;5047620;28;20429;-77
2023/10/11 04:28:05;;;;;;;0.85;0.82;;;15.70;99.90;;;;;;5053719;28;20036;-78
2023/10/11 04:30:41;;;;;;;1.60;0.98;;;15.60;99.90;;;;;;5020236;28;20088;-78
2023/10/11 04:33:12;;;;;;;;;;;15.60;99.90;;;;;;5035982;28;20041;-77
2023/10/11 04:35:42;;;;;;;3.25;1.23;;;15.60;99.90;;;;;;5036325;28;19975;-79
2023/10/11 04:38:10;;;;;;;0.38;0.38;;;15.60;99.90;;;;;;5056451;28;20037;-79
2023/10/11 04:40:51;;;;;;;12.70;3.15;;;15.60;99.90;;;;;;5058018;28;20128;-77
2023/10/11 04:43:20;;;;;;;3.63;2.05;;;15.60;99.90;;;;;;5059456;28;20044;-78
2023/10/11 04:45:47;;;;;;;1.48;1.08;;;15.60;99.90;;;;;;5060952;28;20053;-77
2023/10/11 04:48:29;;;;;;;2.67;1.00;;;15.60;99.90;;;;;;5059314;28;20040;-77
2023/10/11 04:51:04;;;;;;;2.42;1.55;;;15.50;99.90;;;;;;5059302;28;20093;-78
2023/10/11 04:53:35;;;;;;;2.87;1.00;;;15.50;99.90;;;;;;5059468;28;20096;-77
2023/10/11 04:58:52;;;;;;;1.30;0.85;;;15.50;1.00;;;;;;5047288;28;20459;-78
2023/10/11 05:01:29;;;;;;;5.47;2.92;;;15.40;1.00;;;;;;5058434;28;20040;-78
2023/10/11 05:04:00;;;;;;;0.93;0.50;;;15.30;1.00;;;;;;5039571;28;20075;-78
2023/10/11 05:06:39;;;;;;;2.25;2.08;;;15.30;1.00;;;;;;5039400;28;20081;-78
2023/10/11 05:09:13;;;;;;;1.02;0.93;;;15.30;53.40;;;;;;5042733;28;20049;-81
2023/10/11 05:11:44;;;;;;;3.28;1.65;;;15.40;99.90;;;;;;5050256;28;20048;-79
2023/10/11 05:17:16;;;;;;;3.40;0.75;;;15.20;99.90;;;;;;5057166;28;20049;-78
2023/10/11 05:20:05;;;;;;;5.43;2.78;;;15.20;99.90;;;;;;5055845;28;20363;-79
2023/10/11 05:28:07;;;;;;;2.05;1.33;;;15.20;99.90;;;;;;5058661;28;20057;-77
2023/10/11 05:30:37;;;;;;;6.68;3.22;;;15.30;99.90;;;;;;5058697;28;20115;-77
2023/10/11 05:51:51;;;;;;;1.10;1.05;;;16.40;1.00;;;;;;5054033;28;20044;-78
2023/10/11 05:54:18;;;;;;;5.00;2.30;;;15.20;1.00;;;;;;5053651;28;20371;-77
2023/10/11 05:56:49;;;;;;;2.20;1.23;;;15.20;1.00;;;;;;5055127;28;20057;-78
2023/10/11 05:59:15;;;;;;;3.80;1.88;;;15.20;1.00;;;;;;5056262;28;20045;-77
2023/10/11 06:01:52;;;;;;;4.97;1.48;;;15.20;1.00;;;;;;5056322;28;20656;-78
2023/10/11 06:04:23;;;;;;;0.63;0.50;;;15.20;1.00;;;;;;5056812;28;20056;-78
2023/10/11 06:06:52;;;;;;;1.48;1.38;;;15.20;1.00;;;;;;5056032;28;20084;-78
2023/10/11 06:09:18;;;;;;;8.77;2.58;;;15.20;1.00;;;;;;5056154;28;20047;-78
2023/10/11 06:11:50;;;;;;;1.02;0.57;;;15.30;1.00;;;;;;5056027;28;20120;-78
2023/10/11 06:14:19;;;;;;;2.53;1.73;;;15.40;1.00;;;;;;5056402;28;20091;-77
2023/10/11 06:16:49;;;;;;;2.55;1.67;;;15.40;1.00;;;;;;5055582;28;20037;-77
2023/10/11 06:19:16;;;;;;;3.08;2.00;;;15.60;1.00;;;;;;5055904;28;20041;-78
2023/10/11 06:21:59;;;;;;;2.83;2.22;;;15.60;99.90;;;;;;5054277;28;20041;-77
2023/10/11 06:24:34;;;;;;;44.85;3.78;;;15.70;99.90;;;;;;5049598;28;20091;-78
2023/10/11 06:29:45;;;;;;;1.38;1.13;;;15.90;99.90;;;;;;5055890;28;20076;-77
2023/10/11 06:32:11;;;;;;;5.85;2.47;;;16.10;1.00;;;;;;5055562;28;20433;-77
2023/10/11 06:34:37;;;;;;;8.73;2.53;;;16.30;99.90;;;;;;5055976;28;20049;-77
2023/10/11 06:37:06;;;;;;;2.55;1.48;;;16.20;99.90;;;;;;5056125;28;20093;-78
2023/10/11 06:42:14;;;;;;;15.77;3.75;;;16.30;99.90;;;;;;5054561;28;20057;-77
2023/10/11 06:44:41;;;;;;;1.02;0.75;;;16.30;99.90;;;;;;5048721;28;20512;-77
2023/10/11 06:47:10;;;;;;;2.85;2.28;;;16.40;99.90;;;;;;5055760;28;20037;-77
2023/10/11 06:49:47;;;;;;;7.63;2.25;;;16.50;99.90;;;;;;5047272;28;20498;-78
2023/10/11 06:52:20;;;;;;;3.95;1.90;;;16.40;99.90;;;;;;5052943;28;20041;-77
2023/10/11 06:55:07;;;;;;;2.17;1.67;;;16.40;99.90;;;;;;5037812;28;20128;-78
2023/10/11 06:57:32;;;;;;;2.22;1.75;;;16.40;99.90;;;;;;5052841;28;20060;-77
2023/10/11 06:59:58;;;;;;;1.67;1.38;;;16.40;99.90;;;;;;5052167;28;20094;-78
2023/10/11 07:02:33;;;;;;;1.70;1.50;;;16.40;99.90;;;;;;5052359;28;20136;-78
2023/10/11 07:05:05;;;;;;;2.05;1.65;;;16.50;99.90;;;;;;5052160;28;20034;-78
2023/10/11 07:07:34;;;;;;;0.88;0.85;;;16.50;91.10;;;;;;5053425;28;20045;-78
2023/10/11 07:10:28;;;;;;;1.10;0.90;;;16.50;93.20;;;;;;5052586;28;20086;-78
2023/10/11 07:13:12;;;;;;;4.22;1.95;;;16.60;82.90;;;;;;5052192;28;20414;-77
2023/10/11 07:15:38;;;;;;;1.33;1.17;;;16.60;99.70;;;;;;5052136;28;20429;-77
2023/10/11 07:18:10;;;;;;;1.13;1.05;;;16.60;70.20;;;;;;5050952;28;20049;-77
2023/10/11 07:20:49;;;;;;;0.57;0.52;;;16.70;99.90;;;;;;5051602;28;20045;-77
2023/10/11 07:23:21;;;;;;;1.92;1.73;;;16.60;55.20;;;;;;5044556;28;20049;-78
2023/10/11 07:25:59;;;;;;;1.48;1.38;;;16.70;13.20;;;;;;5052090;28;20040;-78
2023/10/11 07:28:37;;;;;;;11.85;3.45;;;16.70;1.00;;;;;;5050037;28;20065;-78
2023/10/11 07:31:05;;;;;;;3.90;1.50;;;17.00;1.00;;;;;;5051819;28;20080;-77
2023/10/11 07:33:36;;;;;;;4.60;1.73;;;16.80;1.00;;;;;;5050874;28;20049;-78
2023/10/11 07:36:02;;;;;;;2.05;1.55;;;16.80;1.00;;;;;;5051295;28;20103;-77
2023/10/11 07:38:34;;;;;;;4.43;2.63;;;16.80;1.00;;;;;;5051714;28;20076;-78
2023/10/11 07:41:17;;;;;;;3.17;1.42;;;16.90;1.00;;;;;;5052381;28;20128;-77
2023/10/11 07:43:45;;;;;;;1.50;1.30;;;16.90;1.00;;;;;;5051388;28;20511;-78
2023/10/11 07:46:11;;;;;;;4.50;1.40;;;16.90;1.00;;;;;;5051406;28;20044;-77
2023/10/11 07:48:39;;;;;;;3.72;1.83;;;16.90;1.00;;;;;;5051535;28;20037;-78
2023/10/11 07:51:11;;;;;;;1.08;0.98;;;17.00;1.00;;;;;;5051688;28;20068;-78
2023/10/11 07:53:41;;;;;;;1.20;1.10;;;17.00;1.00;;;;;;5051957;28;20705;-77
2023/10/11 07:56:07;;;;;;;0.75;0.75;;;16.90;1.00;;;;;;5045812;28;20118;-77
2023/10/11 07:58:33;;;;;;;8.88;3.97;;;17.20;1.00;;;;;;5052538;28;20092;-78
2023/10/11 08:01:05;;;;;;;1.13;1.02;;;17.00;1.00;;;;;;5050866;28;20076;-78
2023/10/11 08:03:34;;;;;;;1.83;1.73;;;17.00;1.00;;;;;;5051517;28;20052;-78
2023/10/11 08:06:05;;;;;;;2.22;2.03;;;17.00;1.00;;;;;;5050160;28;20064;-77
2023/10/11 08:08:31;;;;;;;1.30;1.15;;;17.10;1.00;;;;;;5049691;28;20461;-77
2023/10/11 08:10:59;;;;;;;1.80;1.70;;;17.10;1.00;;;;;;5050300;28;20037;-77
2023/10/11 08:13:25;;;;;;;5.55;3.28;;;17.10;1.00;;;;;;5051052;28;20474;-78
2023/10/11 08:15:57;;;;;;;2.63;1.60;;;17.10;1.00;;;;;;5052142;28;20045;-78
2023/10/11 08:18:23;;;;;;;1.48;1.10;;;17.10;1.00;;;;;;5052322;28;20521;-78
2023/10/11 08:20:48;;;;;;;5.75;1.75;;;17.00;92.00;;;;;;5051901;28;20045;-78
2023/10/11 08:23:28;;;;;;;3.42;2.60;;;16.90;99.90;;;;;;5049535;28;20073;-78
2023/10/11 08:25:57;;;;;;;3.53;3.00;;;16.90;99.90;;;;;;5050572;28;20158;-78
2023/10/11 08:28:29;;;;;;;2.15;1.17;;;16.80;99.90;;;;;;5051834;28;20045;-78
2023/10/11 08:30:58;;;;;;;2.15;1.98;;;16.80;99.90;;;;;;5052140;28;20387;-78
2023/10/11 08:33:25;;;;;;;7.82;4.50;;;16.90;99.90;;;;;;5043414;28;20045;-77
2023/10/11 08:35:53;;;;;;;1.85;1.40;;;16.80;1.00;;;;;;5051452;28;20510;-78
2023/10/11 08:38:25;;;;;;;4.25;2.20;;;16.90;1.00;;;;;;5050284;28;20088;-77
2023/10/11 08:40:58;;;;;;;2.92;1.73;;;16.90;1.00;;;;;;5049620;28;20048;-77
2023/10/11 08:43:25;;;;;;;1.95;1.65;;;16.90;1.00;;;;;;5050094;28;20767;-77
2023/10/11 08:46:09;;;;;;;5.80;2.95;;;17.00;47.10;;;;;;5051169;28;20040;-78
2023/10/11 08:48:38;;;;;;;5.85;2.10;;;16.90;99.90;;;;;;5052776;28;20045;-78
2023/10/11 08:51:10;;;;;;;8.02;2.50;;;17.20;99.90;;;;;;5050528;28;20049;-78
2023/10/11 08:53:38;;;;;;;1.60;0.93;;;17.10;99.90;;;;;;5050065;28;20076;-77
2023/10/11 08:56:04;;;;;;;4.55;2.13;;;17.00;1.00;;;;;;5050991;28;20048;-78
2023/10/11 08:58:29;;;;;;;5.57;2.65;;;17.00;1.00;;;;;;5051313;28;20045;-78
2023/10/11 09:00:56;;;;;;;3.33;1.90;;;17.00;1.00;;;;;;5053415;28;20041;-78
2023/10/11 09:03:26;;;;;;;4.80;1.75;;;17.10;1.00;;;;;;5053224;28;20391;-77
2023/10/11 09:05:58;;;;;;;6.82;2.63;;;17.00;1.00;;;;;;5052820;28;20198;-77
2023/10/11 09:08:27;;;;;;;1.38;1.25;;;17.10;1.00;;;;;;5053581;28;20394;-77
2023/10/11 09:11:28;;;;;;;6.80;2.55;;;17.10;1.00;;;;;;5054117;28;20124;-77
2023/10/11 09:14:12;;;;;;;5.38;2.25;;;17.10;1.00;;;;;;5053348;28;20045;-77
2023/10/11 09:16:42;;;;;;;28.73;3.75;;;17.20;99.90;;;;;;5050995;28;20106;-77
2023/10/11 09:19:11;;;;;;;2.55;2.05;;;17.30;99.90;;;;;;5037243;28;20037;-78
2023/10/11 09:21:37;;;;;;;6.80;3.00;;;17.40;99.90;;;;;;5055483;28;20402;-77
2023/10/11 09:24:23;;;;;;;1.65;1.55;;;17.30;99.90;;;;;;5055541;28;20040;-77
2023/10/11 09:29:42;;;;;;;2.20;1.75;;;17.30;99.90;;;;;;5051045;28;20056;-77
2023/10/11 09:32:09;;;;;;;0.52;0.47;;;17.10;99.90;;;;;;5054499;28;20041;-77
2023/10/11 09:34:41;;;;;;;0.43;0.43;;;17.10;99.90;;;;;;5055746;28;20048;-77
2023/10/11 09:37:11;;;;;;;1.40;1.17;;;17.00;99.90;;;;;;5054382;28;20048;-77
2023/10/11 09:39:43;;;;;;;1.38;1.08;;;16.90;1.00;;;;;;5052712;28;20076;-77
2023/10/11 09:42:14;;;;;;;1.15;0.60;;;17.00;1.00;;;;;;5052965;28;20483;-77
2023/10/11 09:44:43;;;;;;;0.38;0.35;;;17.10;99.90;;;;;;5053298;28;20052;-76
2023/10/11 09:47:19;;;;;;;2.58;1.63;;;17.10;1.00;;;;;;5052774;28;20045;-77
2023/10/11 09:49:47;;;;;;;0.68;0.68;;;17.50;1.00;;;;;;5053196;28;20494;-77
2023/10/11 09:52:18;;;;;;;0.95;0.90;;;17.10;1.00;;;;;;5054342;28;20049;-77
2023/10/11 09:54:45;;;;;;;2.53;1.70;;;17.20;1.00;;;;;;5049148;28;20059;-77
2023/10/11 09:57:20;;;;;;;0.73;0.70;;;17.60;99.90;;;;;;5054964;28;20060;-77
2023/10/11 09:59:59;;;;;;;1.67;1.17;;;17.90;99.90;;;;;;5053966;28;20406;-76
2023/10/11 10:02:30;;;;;;;5.55;1.42;;;18.20;99.90;;;;;;5055338;28;20041;-76
2023/10/11 10:04:57;;;;;;;1.52;0.98;;;18.30;99.90;;;;;;5047724;28;20087;-77
2023/10/11 10:07:25;;;;;;;16.55;1.67;;;18.30;97.30;;;;;;5054950;28;20474;-78
2023/10/11 10:10:02;;;;;;;2.40;1.00;;;18.40;1.00;;;;;;5056046;28;20044;-78
2023/10/11 10:12:42;;;;;;;2.38;1.58;;;18.60;99.90;;;;;;5055045;28;20095;-77
2023/10/11 10:15:14;;;;;;;1.95;0.90;;;18.60;99.90;;;;;;5048030;28;20049;-77
2023/10/11 10:18:05;;;;;;;2.20;1.40;;;18.60;99.90;;;;;;5055084;28;20037;-77
2023/10/11 10:20:34;;;;;;;0.50;0.50;;;18.80;99.90;;;;;;5049357;28;20406;-77
2023/10/11 10:23:14;;;;;;;1.75;0.90;;;19.00;1.00;;;;;;5054248;28;20102;-76
2023/10/11 10:26:06;;;;;;;1.00;0.55;;;19.60;99.90;;;;;;5054482;28;20174;-76
2023/10/11 10:28:32;;;;;;;1.20;1.10;;;19.80;1.00;;;;;;5048446;28;20086;-77
2023/10/11 10:31:17;;;;;;;9.32;1.63;;;19.80;99.90;;;;;;5054341;28;20482;-77
2023/10/11 10:33:51;;;;;;;0.82;0.77;;;19.80;99.90;;;;;;5054466;28;20044;-77
2023/10/11 10:36:28;;;;;;;2.00;1.52;;;19.50;99.90;;;;;;5054904;28;20049;-78
2023/10/11 10:39:00;;;;;;;2.38;0.77;;;19.40;1.00;;;;;;5034069;28;20049;-77
2023/10/11 10:41:37;;;;;;;0.70;0.57;;;19.40;1.00;;;;;;5051592;28;20053;-77
2023/10/11 10:44:06;;;;;;;1.48;0.82;;;19.60;1.00;;;;;;5039685;28;20055;-77
2023/10/11 10:46:36;;;;;;;1.63;1.52;;;19.20;1.00;;;;;;5043379;28;20470;-78
2023/10/11 10:49:03;;;;;;;2.70;0.80;;;19.30;1.00;;;;;;5052559;28;20047;-77
2023/10/11 10:51:35;;;;;;;0.30;0.30;;;19.60;99.90;;;;;;5052346;28;20045;-78
2023/10/11 10:54:12;;;;;;;0.52;0.30;;;20.00;8.80;;;;;;5051797;28;20037;-77
2023/10/11 10:56:46;;;;;;;0.50;0.50;;;20.30;99.90;;;;;;5051065;28;20160;-78
2023/10/11 10:59:13;;;;;;;1.38;0.85;;;20.50;99.90;;;;;;5051583;28;20028;-77
2023/10/11 11:01:40;;;;;;;8.77;1.27;;;20.60;99.90;;;;;;5050939;28;20486;-77
2023/10/11 11:04:07;;;;;;;0.10;0.10;;;20.50;99.90;;;;;;5051220;28;20144;-77
2023/10/11 11:06:40;;;;;;;0.75;0.75;;;20.80;99.90;;;;;;5050750;28;20522;-77
2023/10/11 11:09:18;;;;;;;0.70;0.65;;;21.10;99.90;;;;;;5051502;28;20041;-77
2023/10/11 11:11:46;;;;;;;0.17;0.13;;;21.50;99.90;;;;;;5051209;28;20463;-77
2023/10/11 11:14:13;;;;;;;1.45;0.95;;;21.80;93.20;;;;;;5051040;28;20048;-77
2023/10/11 11:16:41;;;;;;;0.17;0.17;;;21.40;29.30;;;;;;5052431;28;20133;-77
2023/10/11 11:19:17;;;;;;;1.48;0.85;;;21.00;27.20;;;;;;5044716;28;20040;-77
2023/10/11 11:21:46;;;;;;;0.80;0.52;;;20.90;33.40;;;;;;5053689;28;20393;-77
2023/10/11 11:24:34;;;;;;;1.65;0.70;;;21.00;38.70;;;;;;5045662;28;20486;-77
2023/10/11 11:27:01;;;;;;;0.75;0.57;;;21.00;29.00;;;;;;5053372;28;20514;-77
2023/10/11 11:29:31;;;;;;;2.53;0.90;;;21.10;20.40;;;;;;5052161;28;20041;-77
2023/10/11 11:31:59;;;;;;;1.48;0.65;;;21.20;12.40;;;;;;5053075;28;20044;-77
2023/10/11 11:34:28;;;;;;;2.22;0.88;;;21.00;3.00;;;;;;5052351;28;20125;-77
2023/10/11 11:36:58;;;;;;;3.42;0.85;;;21.00;18.80;;;;;;5051713;28;20037;-77
2023/10/11 11:39:26;;;;;;;18.88;0.80;;;21.00;9.70;;;;;;5052002;28;20041;-77
2023/10/11 11:41:57;;;;;;;3.60;0.77;;;21.20;19.30;;;;;;5051347;28;20059;-78
2023/10/11 11:44:31;;;;;;;1.90;1.27;;;21.00;8.00;;;;;;5051803;28;20161;-77
2023/10/11 11:47:04;;;;;;;2.47;1.02;;;20.90;1.00;;;;;;5052117;28;20095;-77
2023/10/11 11:49:29;;;;;;;0.20;0.20;;;20.70;1.00;;;;;;5055227;28;20052;-77
2023/10/11 11:51:55;;;;;;;1.02;0.38;;;20.70;5.00;;;;;;5054562;28;20402;-77
2023/10/11 11:54:23;;;;;;;0.63;0.50;;;20.90;10.40;;;;;;5053114;28;20509;-78
2023/10/11 11:56:54;;;;;;;0.28;0.28;;;20.90;9.10;;;;;;5053754;28;20098;-77
2023/10/11 11:59:20;;;;;;;0.68;0.45;;;21.10;11.90;;;;;;5053030;28;20041;-77
2023/10/11 12:01:53;;;;;;;0.28;0.28;;;21.40;8.50;;;;;;5053501;28;20044;-77
2023/10/11 12:04:20;;;;;;;3.50;0.80;;;21.50;1.00;;;;;;5053911;28;20095;-77
2023/10/11 12:06:49;;;;;;;1.88;0.63;;;21.60;1.00;;;;;;5054425;28;20102;-77
2023/10/11 12:09:22;;;;;;;0.35;0.35;;;21.70;1.00;;;;;;5054812;28;20048;-77
2023/10/11 12:11:53;;;;;;;3.10;1.27;;;21.90;1.00;;;;;;5053420;28;20048;-78
2023/10/11 12:14:23;;;;;;;0.32;0.32;;;21.70;1.00;;;;;;5054197;28;20509;-78
2023/10/11 12:16:48;;;;;;;3.78;1.48;;;21.70;1.00;;;;;;5052678;28;20053;-77
2023/10/11 12:19:15;;;;;;;0.65;0.65;;;21.40;1.00;;;;;;5053537;28;20044;-78
2023/10/11 12:21:41;;;;;;;0.30;0.30;;;21.40;1.00;;;;;;5052722;28;20041;-78
2023/10/11 12:24:12;;;;;;;0.10;0.10;;;21.40;1.00;;;;;;5053852;28;20094;-77
2023/10/11 12:26:43;;;;;;;0.93;0.70;;;21.40;1.00;;;;;;5053830;28;20045;-77
2023/10/11 12:29:18;;;;;;;0.60;0.38;;;21.90;1.00;;;;;;5054315;28;20095;-77
2023/10/11 12:31:44;;;;;;;0.10;0.10;;;22.10;1.00;;;;;;5054053;28;20033;-77
2023/10/11 12:34:10;;;;;;;0.35;0.30;;;22.20;1.00;;;;;;5053827;28;20048;-77
2023/10/11 12:36:41;;;;;;;0.52;0.52;;;22.10;1.00;;;;;;5054062;28;20033;-77
2023/10/11 12:39:08;;;;;;;1.75;0.70;;;21.70;1.00;;;;;;5054013;28;20083;-77
2023/10/11 12:41:36;;;;;;;0.22;0.13;;;21.60;1.00;;;;;;5053899;28;20102;-77
2023/10/11 12:44:03;;;;;;;0.00;0.00;;;21.50;1.00;;;;;;5053779;28;20053;-77
2023/10/11 12:46:29;;;;;;;13.68;0.95;;;21.50;1.00;;;;;;5053506;28;20055;-77
2023/10/11 12:48:54;;;;;;;0.05;0.05;;;21.40;1.00;;;;;;5053689;28;20116;-78
2023/10/11 12:51:23;;;;;;;0.03;0.03;;;21.30;1.00;;;;;;5053869;28;20048;-77
2023/10/11 12:53:54;;;;;;;4.30;1.55;;;21.30;1.00;;;;;;5053736;28;20112;-77
2023/10/11 12:56:23;;;;;;;1.80;0.75;;;21.00;1.00;;;;;;5055281;28;20067;-77
2023/10/11 12:58:51;;;;;;;0.17;0.17;;;21.00;1.00;;;;;;5056599;28;20045;-77
2023/10/11 13:01:25;;;;;;;5.57;0.98;;;21.30;1.00;;;;;;5057182;28;20094;-78
2023/10/11 13:04:05;;;;;;;0.70;0.60;;;21.30;1.00;;;;;;5049434;28;20556;-77
2023/10/11 13:06:36;;;;;;;0.00;0.00;;;21.40;1.00;;;;;;5056895;28;20056;-77
2023/10/11 13:09:15;;;;;;;1.50;0.88;;;21.50;1.00;;;;;;5057476;28;20088;-77
2023/10/11 13:11:46;;;;;;;0.15;0.10;;;21.50;1.00;;;;;;5057728;28;20523;-78
2023/10/11 13:14:18;;;;;;;0.68;0.63;;;21.50;1.00;;;;;;5057477;28;20451;-77
2023/10/11 13:16:54;;;;;;;1.73;1.13;;;21.50;1.00;;;;;;5055952;28;20052;-78
2023/10/11 13:19:22;;;;;;;0.82;0.40;;;21.70;1.00;;;;;;5057480;28;20033;-77
2023/10/11 13:21:48;;;;;;;0.47;0.45;;;21.90;1.00;;;;;;5056931;28;20048;-77
2023/10/11 13:24:22;;;;;;;2.15;0.47;;;22.10;1.00;;;;;;5057356;28;20502;-77
2023/10/11 13:26:58;;;;;;;0.68;0.68;;;22.50;1.00;;;;;;5057861;28;20071;-77
2023/10/11 13:29:25;;;;;;;0.10;0.10;;;22.50;1.00;;;;;;5051021;28;20032;-77
2023/10/11 13:31:56;;;;;;;0.65;0.47;;;22.20;1.00;;;;;;5058022;28;20041;-77
2023/10/11 13:34:28;;;;;;;0.43;0.30;;;22.10;1.00;;;;;;5040123;28;20045;-77
2023/10/11 13:36:58;;;;;;;5.95;0.75;;;21.90;1.00;;;;;;5056984;28;20061;-78
2023/10/11 13:39:27;;;;;;;0.05;0.05;;;21.50;1.00;;;;;;5056466;28;20045;-77
2023/10/11 13:41:56;;;;;;;0.63;0.35;;;21.20;1.00;;;;;;5056336;28;20040;-77
2023/10/11 13:44:23;;;;;;;3.22;1.15;;;21.20;1.00;;;;;;5056123;28;20048;-77
2023/10/11 13:46:53;;;;;;;0.05;0.05;;;21.00;1.00;;;;;;5056124;28;20041;-77
2023/10/11 13:49:26;;;;;;;0.25;0.25;;;20.90;1.00;;;;;;5055690;28;20048;-78